Flight Track Log - Related Links

Times and Time Zones

All times are in EDT time to prevent confusion due to time zone crossing. See the N552XJ flight status page for this flight to view local times or setup timezone preferences in your user account.


Time Position Orientation Groundspeed Altitude Reporting Facility
EDT Latitude Longitude Course Direction KTS MPH feet Rate Location/Type
Thu 10:33:21 PM 42.4667 -71.3333 270° West 157 181 2,400  Level KA90
Thu 10:35:50 PM 42.3714 -71.4986 232° Southwest 252 290 10,100 2,914 Climbing Boston Center
Thu 10:36:51 PM 42.3600 -71.6169 263° West 295 339 12,600 2,773 Climbing Boston Center
Thu 10:37:49 PM 42.3483 -71.7433 263° West 331 381 15,600 1,765 Climbing Boston Center
Thu 10:38:50 PM 42.3344 -71.8728 262° West 336 387 16,100 197 Climbing Boston Center
Thu 10:39:51 PM 42.3183 -72.0019 260° West 358 412 16,000 -51 Descending Boston Center
Thu 10:40:48 PM 42.3061 -72.1342 263° West 358 412 16,000  Level Boston Center
Thu 10:41:48 PM 42.2919 -72.2661 262° West 353 406 16,000  Level Boston Center
Thu 10:42:52 PM 42.2775 -72.3953 261° West 353 406 16,000  Level Boston Center
Thu 10:43:49 PM 42.2608 -72.5269 260° West 353 406 16,000  Level Boston Center
Thu 10:44:51 PM 42.2500 -72.6561 264° West 353 406 16,000  Level Boston Center
Thu 10:45:51 PM 42.2353 -72.7850 261° West 353 406 16,000  Level Boston Center
Thu 10:46:48 PM 42.2203 -72.9167 261° West 353 406 16,000  Level Boston Center
Thu 10:47:51 PM 42.1861 -73.0397 249° West 348 400 16,000 -446 Level Boston Center
Thu 10:48:49 PM 42.1356 -73.1539 239° Southwest 353 406 15,100 -1,282 Descending Boston Center
Thu 10:49:48 PM 42.0828 -73.2597 236° Southwest 352 405 13,500 -1,475 Descending Boston Center
Thu 10:50:51 PM 42.0361 -73.3569 237° Southwest 347 399 12,100 -1,041 Descending Boston Center
Thu 10:51:49 PM 41.9831 -73.4622 236° Southwest 334 384 11,400 -807 Descending Boston Center
Thu 10:52:50 PM 41.9406 -73.5481 236° Southwest 325 374 10,500 -706 Descending Boston Center
Thu 10:53:48 PM 41.8853 -73.6531 235° Southwest 319 367 10,000 -250 Descending Boston Center
Thu 10:54:50 PM 41.8447 -73.7386 238° Southwest 319 367 10,000  Level Boston Center
Thu 10:55:50 PM 41.7914 -73.8433 236° Southwest 319 367 10,000  Level Boston Center
Thu 10:56:49 PM 41.7486 -73.9289 236° Southwest 319 367 10,000  Level Boston Center
Thu 10:58:01 PM 41.6867 -74.0525 236° Southwest 319 367 10,000  Level Boston Center
Thu 10:59:01 PM 41.6311 -74.1425 230° Southwest 319 367 10,000  Level Boston Center
Thu 11:00:01 PM 41.5733 -74.2272 228° Southwest 314 361 10,000  Level Boston Center
Thu 11:01:02 PM 41.5200 -74.3061 228° Southwest 304 350 10,000 -744 Level Boston Center
Thu 11:02:02 PM 41.4772 -74.3742 230° Southwest 256 295 8,500 -1,182 Descending Boston Center
Thu 11:04:25 PM 41.3667 -74.5333 227° Southwest 231 266 6,000 -739 Descending New York TRACON
Thu 11:05:25 PM 41.3333 -74.5833 228° Southwest 233 268 6,000 -579 Level New York TRACON
Thu 11:06:19 PM 41.2667 -74.6000 191° South 245 282 4,900 -1,105 Descending New York TRACON
Thu 11:07:19 PM 41.2333 -74.5167 118° Southeast 251 289 3,900 -950 Descending New York TRACON
Thu 11:08:19 PM 41.2000 -74.4333 118° Southeast 265 305 3,000 -450 Descending New York TRACON
Thu 11:09:19 PM 41.1667 -74.3667 124° Southeast 230 265 3,000  Level New York TRACON
Thu 11:10:19 PM 41.1333 -74.2833 118° Southeast 257 296 3,000  Level New York TRACON
Thu 11:11:19 PM 41.1000 -74.2000 118° Southeast 251 289 3,000 -100 Level New York TRACON
Thu 11:12:19 PM 41.0667 -74.1333 124° Southeast 236 272 2,800 -476 Descending New York TRACON
Thu 11:13:25 PM 41.0333 -74.0667 124° Southeast 200 230 2,000 -727 Descending New York TRACON

Login

Don't have an account? Register now (free) for customized features, flight alerts, and more!